createdAt,value
2018-01-27T00:00:05.062Z,7.90
2018-01-27T00:02:31.908Z,7.90
2018-01-27T00:04:58.739Z,7.80
2018-01-27T00:07:25.608Z,7.70
2018-01-27T00:09:52.448Z,7.70
2018-01-27T00:12:19.489Z,7.80
2018-01-27T00:14:46.348Z,7.70
2018-01-27T00:17:13.287Z,7.80
2018-01-27T00:19:40.224Z,7.80
2018-01-27T00:22:07.064Z,7.70
2018-01-27T00:24:33.919Z,7.80
2018-01-27T00:27:00.769Z,7.80
2018-01-27T00:29:27.599Z,7.90
2018-01-27T00:31:54.651Z,7.90
2018-01-27T00:34:21.495Z,7.80
2018-01-27T00:36:48.439Z,7.80
2018-01-27T00:39:15.295Z,7.80
2018-01-27T00:41:42.227Z,7.70
2018-01-27T00:44:09.184Z,7.70
2018-01-27T00:46:36.025Z,7.80
2018-01-27T00:49:02.973Z,7.70
2018-01-27T00:51:29.823Z,7.70
2018-01-27T00:53:56.659Z,7.80
2018-01-27T00:56:23.528Z,7.80
2018-01-27T00:58:50.387Z,7.80
2018-01-27T01:01:17.254Z,7.80
2018-01-27T01:03:44.552Z,7.80
2018-01-27T01:06:11.496Z,7.80
2018-01-27T01:08:38.438Z,7.70
2018-01-27T01:11:05.284Z,7.70
2018-01-27T01:13:32.135Z,7.70
2018-01-27T01:15:59.076Z,7.70
2018-01-27T01:18:25.949Z,7.80
2018-01-27T01:20:52.873Z,7.80
2018-01-27T01:23:19.811Z,7.70
2018-01-27T01:25:46.760Z,7.70
2018-01-27T01:28:13.700Z,7.80
2018-01-27T01:30:40.583Z,7.70
2018-01-27T01:33:07.491Z,7.80
2018-01-27T01:35:34.348Z,7.70
2018-01-27T01:38:01.212Z,7.70
2018-01-27T01:40:28.048Z,7.80
2018-01-27T01:42:54.915Z,7.80
2018-01-27T01:45:21.760Z,7.80
2018-01-27T01:47:48.667Z,7.70
2018-01-27T01:50:15.612Z,7.60
2018-01-27T01:52:42.459Z,7.50
2018-01-27T01:55:09.326Z,7.40
2018-01-27T01:57:36.244Z,7.40
2018-01-27T02:00:03.075Z,7.40
2018-01-27T02:02:30.023Z,7.20
2018-01-27T02:04:56.868Z,7.10
2018-01-27T02:07:23.819Z,7.10
2018-01-27T02:09:50.669Z,7.00
2018-01-27T02:12:17.530Z,7.00
2018-01-27T02:14:44.459Z,6.80
2018-01-27T02:17:11.301Z,6.70
2018-01-27T02:19:38.247Z,6.70
2018-01-27T02:22:05.102Z,6.60
2018-01-27T02:24:31.964Z,6.60
2018-01-27T02:26:58.799Z,6.60
2018-01-27T02:29:25.723Z,6.50
2018-01-27T02:31:52.571Z,6.50
2018-01-27T02:34:19.436Z,6.30
2018-01-27T02:36:46.283Z,6.10
2018-01-27T02:39:13.132Z,6.00
2018-01-27T02:41:40.088Z,6.20
2018-01-27T02:44:06.931Z,6.00
2018-01-27T02:46:33.846Z,5.90
2018-01-27T02:49:00.789Z,5.90
2018-01-27T02:51:27.748Z,6.00
2018-01-27T02:53:54.614Z,6.00
2018-01-27T02:56:21.535Z,5.90
2018-01-27T02:58:48.404Z,5.80
2018-01-27T03:01:15.325Z,5.80
2018-01-27T03:03:42.271Z,5.70
2018-01-27T03:06:09.208Z,5.80
2018-01-27T03:08:36.160Z,5.70
2018-01-27T03:11:03.000Z,5.70
2018-01-27T03:13:29.835Z,5.70
2018-01-27T03:15:56.788Z,5.60
2018-01-27T03:18:23.629Z,5.50
2018-01-27T03:20:50.480Z,5.50
2018-01-27T03:23:17.344Z,5.60
2018-01-27T03:25:44.268Z,5.60
2018-01-27T03:28:11.108Z,5.80
2018-01-27T03:30:38.061Z,5.90
2018-01-27T03:33:04.904Z,5.90
2018-01-27T03:35:31.749Z,6.10
2018-01-27T03:37:58.591Z,6.00
2018-01-27T03:40:25.539Z,6.00
2018-01-27T03:42:52.484Z,6.00
2018-01-27T03:45:19.319Z,6.00
2018-01-27T03:47:46.277Z,6.00
2018-01-27T03:50:13.119Z,6.00
2018-01-27T03:52:40.063Z,6.00
2018-01-27T03:55:06.924Z,6.00
2018-01-27T03:57:33.764Z,6.10
2018-01-27T04:00:00.698Z,6.10
2018-01-27T04:02:27.639Z,6.10
2018-01-27T04:04:54.471Z,6.00
2018-01-27T04:07:21.435Z,6.00
2018-01-27T04:09:48.288Z,5.90
2018-01-27T04:12:15.223Z,5.90
2018-01-27T04:14:42.166Z,5.90
2018-01-27T04:17:09.020Z,5.90
2018-01-27T04:19:35.958Z,5.80
2018-01-27T04:22:02.907Z,5.70
2018-01-27T04:24:29.861Z,5.70
2018-01-27T04:26:56.716Z,5.70
2018-01-27T04:29:23.554Z,5.60
2018-01-27T04:31:50.496Z,5.60
2018-01-27T04:34:17.395Z,5.50
2018-01-27T04:36:44.634Z,5.60
2018-01-27T04:39:11.488Z,5.60
2018-01-27T04:41:38.318Z,5.50
2018-01-27T04:44:05.330Z,5.50
2018-01-27T04:46:32.188Z,5.50
2018-01-27T04:51:43.414Z,5.40
2018-01-27T04:54:10.265Z,5.50
2018-01-27T04:56:37.100Z,5.60
2018-01-27T04:59:04.009Z,5.50
2018-01-27T05:01:30.944Z,5.50
2018-01-27T05:03:57.789Z,5.50
2018-01-27T05:06:24.648Z,5.50
2018-01-27T05:08:51.592Z,5.50
2018-01-27T05:11:18.440Z,5.50
2018-01-27T05:13:45.385Z,5.50
2018-01-27T05:16:12.329Z,5.60
2018-01-27T05:18:39.277Z,5.60
2018-01-27T05:21:06.136Z,5.50
2018-01-27T05:23:33.060Z,5.40
2018-01-27T05:25:59.945Z,5.30
2018-01-27T05:28:26.861Z,5.30
2018-01-27T05:30:53.805Z,5.40
2018-01-27T05:33:20.744Z,5.50
2018-01-27T05:35:47.588Z,5.50
2018-01-27T05:38:14.444Z,5.50
2018-01-27T05:40:41.307Z,5.40
2018-01-27T05:43:08.232Z,5.30
2018-01-27T05:45:35.471Z,5.20
2018-01-27T05:48:02.314Z,5.10
2018-01-27T05:50:29.267Z,5.10
2018-01-27T05:52:56.114Z,5.10
2018-01-27T05:55:23.066Z,5.10
2018-01-27T05:57:50.013Z,5.10
2018-01-27T06:00:16.948Z,4.90
2018-01-27T06:02:43.900Z,4.80
2018-01-27T06:05:10.744Z,4.80
2018-01-27T06:07:37.693Z,4.70
2018-01-27T06:10:04.536Z,4.70
2018-01-27T06:12:31.383Z,4.80
2018-01-27T06:14:58.232Z,4.90
2018-01-27T06:17:25.085Z,4.80
2018-01-27T06:19:52.008Z,4.60
2018-01-27T06:22:18.962Z,4.60
2018-01-27T06:24:45.912Z,4.60
2018-01-27T06:27:12.847Z,4.60
2018-01-27T06:29:39.723Z,4.80
2018-01-27T06:32:06.597Z,4.80
2018-01-27T06:34:33.907Z,4.60
2018-01-27T06:37:00.844Z,4.60
2018-01-27T06:39:27.701Z,4.60
2018-01-27T06:41:54.565Z,4.40
2018-01-27T06:44:21.570Z,4.30
2018-01-27T06:46:48.429Z,4.30
2018-01-27T06:49:15.368Z,4.40
2018-01-27T06:51:42.321Z,4.50
2018-01-27T06:54:09.255Z,4.60
2018-01-27T06:56:36.308Z,4.60
2018-01-27T06:59:03.152Z,4.50
2018-01-27T07:01:30.116Z,4.50
2018-01-27T07:03:56.981Z,4.50
2018-01-27T07:06:23.897Z,4.40
2018-01-27T07:08:50.843Z,4.20
2018-01-27T07:11:17.889Z,4.20
2018-01-27T07:13:44.729Z,4.20
2018-01-27T07:16:11.680Z,4.20
2018-01-27T07:18:38.623Z,4.20
2018-01-27T07:21:05.668Z,4.20
2018-01-27T07:23:32.527Z,4.20
2018-01-27T07:25:59.473Z,4.20
2018-01-27T07:28:26.346Z,4.20
2018-01-27T07:30:53.261Z,4.30
2018-01-27T07:33:20.131Z,4.30
2018-01-27T07:35:47.076Z,4.20
2018-01-27T07:38:13.945Z,4.20
2018-01-27T07:40:41.257Z,4.30
2018-01-27T07:43:08.202Z,4.30
2018-01-27T07:45:35.140Z,4.40
2018-01-27T07:48:02.085Z,4.40
2018-01-27T07:50:29.026Z,4.60
2018-01-27T07:52:55.869Z,4.60
2018-01-27T07:55:22.713Z,4.60
2018-01-27T07:57:49.567Z,4.60
2018-01-27T08:00:16.711Z,4.60
2018-01-27T08:02:43.569Z,4.70
2018-01-27T08:05:10.444Z,4.70
2018-01-27T08:07:37.304Z,4.80
2018-01-27T08:10:04.540Z,4.80
2018-01-27T08:12:31.404Z,4.80
2018-01-27T08:14:58.701Z,4.90
2018-01-27T08:17:25.653Z,4.90
2018-01-27T08:19:52.513Z,5.00
2018-01-27T08:22:19.468Z,5.00
2018-01-27T08:24:46.395Z,5.10
2018-01-27T08:27:13.251Z,5.20
2018-01-27T08:29:40.172Z,5.20
2018-01-27T08:32:07.043Z,5.30
2018-01-27T08:34:33.889Z,5.40
2018-01-27T08:37:00.733Z,5.50
2018-01-27T08:39:27.614Z,5.60
2018-01-27T08:41:54.867Z,5.70
2018-01-27T08:44:22.128Z,5.80
2018-01-27T08:46:48.995Z,5.70
2018-01-27T08:49:15.836Z,5.80
2018-01-27T08:51:42.675Z,5.90
2018-01-27T08:54:09.641Z,5.90
2018-01-27T08:56:36.588Z,5.90
2018-01-27T08:59:03.523Z,6.00
2018-01-27T09:01:30.376Z,6.00
2018-01-27T09:03:57.416Z,6.10
2018-01-27T09:06:24.248Z,6.20
2018-01-27T09:08:51.153Z,6.20
2018-01-27T09:11:18.060Z,6.30
2018-01-27T09:13:44.905Z,6.30
2018-01-27T09:16:11.858Z,6.30
2018-01-27T09:18:38.795Z,6.20
2018-01-27T09:21:05.659Z,6.10
2018-01-27T09:23:32.587Z,6.10
2018-01-27T09:25:59.444Z,6.20
2018-01-27T09:28:26.375Z,6.20
2018-01-27T09:30:53.259Z,6.20
2018-01-27T09:33:20.174Z,6.20
2018-01-27T09:35:47.022Z,6.30
2018-01-27T09:38:13.967Z,6.30
2018-01-27T09:40:40.902Z,6.30
2018-01-27T09:43:07.745Z,6.30
2018-01-27T09:45:34.589Z,6.20
2018-01-27T09:48:01.466Z,6.30
2018-01-27T09:50:28.400Z,6.30
2018-01-27T09:52:55.246Z,6.40
2018-01-27T09:55:22.188Z,6.50
2018-01-27T09:57:49.024Z,6.50
2018-01-27T10:00:15.978Z,6.60
2018-01-27T10:02:42.932Z,6.70
2018-01-27T10:05:09.752Z,6.70
2018-01-27T10:07:36.729Z,6.70
2018-01-27T10:10:03.581Z,6.80
2018-01-27T10:12:30.446Z,6.80
2018-01-27T10:14:57.710Z,6.90
2018-01-27T10:17:24.979Z,6.90
2018-01-27T10:19:51.843Z,6.90
2018-01-27T10:22:18.889Z,7.00
2018-01-27T10:24:45.713Z,7.00
2018-01-27T10:27:12.596Z,7.00
2018-01-27T10:29:39.537Z,7.10
2018-01-27T10:32:06.472Z,7.10
2018-01-27T10:34:33.317Z,7.10
2018-01-27T10:37:00.188Z,7.10
2018-01-27T10:39:27.210Z,7.10
2018-01-27T10:41:54.071Z,7.10
2018-01-27T10:44:21.012Z,7.10
2018-01-27T10:46:47.873Z,7.20
2018-01-27T10:49:14.727Z,7.30
2018-01-27T10:51:41.648Z,7.30
2018-01-27T10:54:08.509Z,7.30
2018-01-27T10:56:35.432Z,7.40
2018-01-27T10:59:02.379Z,7.50
2018-01-27T11:01:29.322Z,7.50
2018-01-27T11:03:56.268Z,7.40
2018-01-27T11:06:23.314Z,7.40
2018-01-27T11:08:50.170Z,7.40
2018-01-27T11:11:17.110Z,7.50
2018-01-27T11:13:44.080Z,7.50
2018-01-27T11:16:11.009Z,7.50
2018-01-27T11:18:37.939Z,7.50
2018-01-27T11:21:04.896Z,7.50
2018-01-27T11:23:31.836Z,7.50
2018-01-27T11:25:58.864Z,7.40
2018-01-27T11:28:25.737Z,7.30
2018-01-27T11:30:53.501Z,7.30
2018-01-27T11:33:20.449Z,7.40
2018-01-27T11:35:47.385Z,7.40
2018-01-27T11:38:14.229Z,7.40
2018-01-27T11:40:41.084Z,7.40
2018-01-27T11:43:08.028Z,7.30
2018-01-27T11:45:34.923Z,7.30
2018-01-27T11:48:01.781Z,7.20
2018-01-27T11:50:29.064Z,7.20
2018-01-27T11:52:55.912Z,7.20
2018-01-27T11:55:22.776Z,7.10
2018-01-27T11:57:49.656Z,7.20
2018-01-27T12:00:16.960Z,7.30
2018-01-27T12:02:43.898Z,7.30
2018-01-27T12:05:10.737Z,7.20
2018-01-27T12:07:37.689Z,6.90
2018-01-27T12:10:04.972Z,6.10
2018-01-27T12:12:31.824Z,6.10
2018-01-27T12:14:58.713Z,6.00
2018-01-27T12:17:25.963Z,5.80
2018-01-27T12:19:52.832Z,5.80
2018-01-27T12:22:19.780Z,5.60
2018-01-27T12:24:46.639Z,5.50
2018-01-27T12:27:13.586Z,5.70
2018-01-27T12:29:40.538Z,5.90
2018-01-27T12:32:07.472Z,6.10
2018-01-27T12:34:34.420Z,6.20
2018-01-27T12:37:01.265Z,6.40
2018-01-27T12:39:28.133Z,6.50
2018-01-27T12:41:54.976Z,6.60
2018-01-27T12:44:21.894Z,6.70
2018-01-27T12:46:48.731Z,6.80
2018-01-27T12:49:15.724Z,7.00
2018-01-27T12:51:42.647Z,7.00
2018-01-27T12:54:09.481Z,7.10
2018-01-27T12:56:36.469Z,7.20
2018-01-27T12:59:03.288Z,7.30
2018-01-27T13:01:30.212Z,7.20
2018-01-27T13:03:57.077Z,7.20
2018-01-27T13:06:23.934Z,7.20
2018-01-27T13:08:50.804Z,7.30
2018-01-27T13:11:18.100Z,7.40
2018-01-27T13:13:44.963Z,7.40
2018-01-27T13:16:11.931Z,7.30
2018-01-27T13:18:38.789Z,7.30
2018-01-27T13:21:06.086Z,7.20
2018-01-27T13:23:32.927Z,7.20
2018-01-27T13:25:59.788Z,7.20
2018-01-27T13:28:26.645Z,7.10
2018-01-27T13:30:53.569Z,7.10
2018-01-27T13:33:20.608Z,7.20
2018-01-27T13:35:47.555Z,7.30
2018-01-27T13:38:14.412Z,7.30
2018-01-27T13:40:41.448Z,7.30
2018-01-27T13:43:08.396Z,7.30
2018-01-27T13:45:35.280Z,7.30
2018-01-27T13:48:02.147Z,7.30
2018-01-27T13:50:28.988Z,7.30
2018-01-27T13:52:56.335Z,7.40
2018-01-27T13:55:23.170Z,7.40
2018-01-27T13:57:50.013Z,7.40
2018-01-27T14:00:16.934Z,7.40
2018-01-27T14:02:43.782Z,7.40
2018-01-27T14:05:10.726Z,7.50
2018-01-27T14:07:37.673Z,7.50
2018-01-27T14:10:04.563Z,7.50
2018-01-27T14:12:31.407Z,7.50
2018-01-27T14:14:58.733Z,7.40
2018-01-27T14:17:25.661Z,7.40
2018-01-27T14:19:52.504Z,7.50
2018-01-27T14:22:19.456Z,7.50
2018-01-27T14:24:46.394Z,7.50
2018-01-27T14:27:13.240Z,7.50
2018-01-27T14:29:40.110Z,7.40
2018-01-27T14:32:06.965Z,7.40
2018-01-27T14:34:33.872Z,7.40
2018-01-27T14:37:00.818Z,7.40
2018-01-27T14:39:27.793Z,7.50
2018-01-27T14:41:54.703Z,7.40
2018-01-27T14:44:21.565Z,7.50
2018-01-27T14:46:48.517Z,7.40
2018-01-27T14:49:15.375Z,7.30
2018-01-27T14:51:42.297Z,7.40
2018-01-27T14:54:09.254Z,7.40
2018-01-27T14:56:36.189Z,7.40
2018-01-27T14:59:03.133Z,7.50
2018-01-27T15:01:30.073Z,7.50
2018-01-27T15:03:56.915Z,7.50
2018-01-27T15:06:23.871Z,7.50
2018-01-27T15:08:50.811Z,7.50
2018-01-27T15:11:17.656Z,7.50
2018-01-27T15:13:44.517Z,7.50
2018-01-27T15:16:11.380Z,7.50
2018-01-27T15:18:38.223Z,7.40
2018-01-27T15:21:05.136Z,7.40
2018-01-27T15:23:32.075Z,7.50
2018-01-27T15:25:59.025Z,7.40
2018-01-27T15:28:25.965Z,7.40
2018-01-27T15:30:52.779Z,7.40
2018-01-27T15:33:20.081Z,7.40
2018-01-27T15:35:46.921Z,7.40
2018-01-27T15:38:13.784Z,7.40
2018-01-27T15:40:40.712Z,7.40
2018-01-27T15:43:07.748Z,7.50
2018-01-27T15:45:34.706Z,7.40
2018-01-27T15:48:02.873Z,7.40
2018-01-27T15:50:29.712Z,7.30
2018-01-27T15:52:56.568Z,7.40
2018-01-27T15:55:23.430Z,7.40
2018-01-27T15:57:50.400Z,7.40
2018-01-27T16:00:17.309Z,7.40
2018-01-27T16:02:44.243Z,7.50
2018-01-27T16:05:11.108Z,7.50
2018-01-27T16:07:38.040Z,7.50
2018-01-27T16:10:04.989Z,7.50
2018-01-27T16:12:32.035Z,7.40
2018-01-27T16:14:58.981Z,7.30
2018-01-27T16:17:25.935Z,7.20
2018-01-27T16:19:52.798Z,7.10
2018-01-27T16:22:19.661Z,7.10
2018-01-27T16:24:46.565Z,7.10
2018-01-27T16:27:13.420Z,7.10
2018-01-27T16:29:40.279Z,7.20
2018-01-27T16:32:07.189Z,7.20
2018-01-27T16:34:34.019Z,7.20
2018-01-27T16:37:00.871Z,7.10
2018-01-27T16:39:27.768Z,7.00
2018-01-27T16:41:54.605Z,7.00
2018-01-27T16:44:21.481Z,7.10
2018-01-27T16:46:48.726Z,7.00
2018-01-27T16:49:16.025Z,7.00
2018-01-27T16:51:42.897Z,7.00
2018-01-27T16:54:09.821Z,7.00
2018-01-27T16:56:36.859Z,7.00
2018-01-27T16:59:03.806Z,6.90
2018-01-27T17:01:30.653Z,6.90
2018-01-27T17:03:57.493Z,6.90
2018-01-27T17:06:24.456Z,6.90
2018-01-27T17:08:51.301Z,6.90
2018-01-27T17:11:18.166Z,7.00
2018-01-27T17:13:45.013Z,7.10
2018-01-27T17:16:11.925Z,7.00
2018-01-27T17:18:38.876Z,7.00
2018-01-27T17:21:05.826Z,7.00
2018-01-27T17:23:32.768Z,6.90
2018-01-27T17:25:59.620Z,7.00
2018-01-27T17:28:26.485Z,7.00
2018-01-27T17:30:53.354Z,7.10
2018-01-27T17:33:20.656Z,7.20
2018-01-27T17:35:47.503Z,7.20
2018-01-27T17:38:14.551Z,7.30
2018-01-27T17:40:41.492Z,7.40
2018-01-27T17:43:08.336Z,7.20
2018-01-27T17:45:35.378Z,7.10
2018-01-27T17:48:02.233Z,7.10
2018-01-27T17:50:29.080Z,7.10
2018-01-27T17:52:56.028Z,7.10
2018-01-27T17:55:22.970Z,7.10
2018-01-27T17:57:49.831Z,7.10
2018-01-27T18:00:16.760Z,7.10
2018-01-27T18:02:43.600Z,7.10
2018-01-27T18:05:10.540Z,7.10
2018-01-27T18:07:37.407Z,7.10
2018-01-27T18:10:04.298Z,7.10
2018-01-27T18:12:31.124Z,7.00
2018-01-27T18:14:57.982Z,6.90
2018-01-27T18:17:25.244Z,7.00
2018-01-27T18:19:52.551Z,7.00
2018-01-27T18:22:19.441Z,7.00
2018-01-27T18:24:46.692Z,6.80
2018-01-27T18:27:13.989Z,6.80
2018-01-27T18:29:40.855Z,6.80
2018-01-27T18:32:07.709Z,6.90
2018-01-27T18:34:34.624Z,7.00
2018-01-27T18:37:01.477Z,7.10
2018-01-27T18:39:28.405Z,7.10
2018-01-27T18:41:55.245Z,7.20
2018-01-27T18:44:22.095Z,7.20
2018-01-27T18:46:48.955Z,7.10
2018-01-27T18:49:15.883Z,7.00
2018-01-27T18:51:42.799Z,6.90
2018-01-27T18:54:09.643Z,6.90
2018-01-27T18:56:36.879Z,7.00
2018-01-27T18:59:03.736Z,7.00
2018-01-27T19:01:31.001Z,7.00
2018-01-27T19:03:58.291Z,6.90
2018-01-27T19:06:25.236Z,6.90
2018-01-27T19:08:52.122Z,6.90
2018-01-27T19:11:19.436Z,7.10
2018-01-27T19:13:46.399Z,7.00
2018-01-27T19:16:13.328Z,7.10
2018-01-27T19:18:40.190Z,7.10
2018-01-27T19:21:07.032Z,7.20
2018-01-27T19:23:33.905Z,7.10
2018-01-27T19:26:01.208Z,7.10
2018-01-27T19:28:28.163Z,7.10
2018-01-27T19:30:54.997Z,7.00
2018-01-27T19:33:21.836Z,6.90
2018-01-27T19:35:48.910Z,6.90
2018-01-27T19:38:15.841Z,6.90
2018-01-27T19:40:42.795Z,6.90
2018-01-27T19:43:09.743Z,7.00
2018-01-27T19:45:36.689Z,7.00
2018-01-27T19:48:03.551Z,6.80
2018-01-27T19:50:30.473Z,6.80
2018-01-27T19:52:57.341Z,6.70
2018-01-27T19:55:24.189Z,6.70
2018-01-27T19:57:51.039Z,6.70
2018-01-27T20:00:17.909Z,6.70
2018-01-27T20:02:45.216Z,6.70
2018-01-27T20:05:12.057Z,6.70
2018-01-27T20:07:38.901Z,6.70
2018-01-27T20:10:05.941Z,6.60
2018-01-27T20:12:32.767Z,6.60
2018-01-27T20:14:59.621Z,6.60
2018-01-27T20:17:26.567Z,6.60
2018-01-27T20:19:53.440Z,6.50
2018-01-27T20:22:20.363Z,6.60
2018-01-27T20:24:47.224Z,6.70
2018-01-27T20:27:14.070Z,6.70
2018-01-27T20:29:40.916Z,6.70
2018-01-27T20:32:07.857Z,6.60
2018-01-27T20:34:34.697Z,6.70
2018-01-27T20:37:01.730Z,6.70
2018-01-27T20:39:28.579Z,6.80
2018-01-27T20:41:55.420Z,6.80
2018-01-27T20:44:22.298Z,6.80
2018-01-27T20:46:49.212Z,6.90
2018-01-27T20:49:16.073Z,7.00
2018-01-27T20:51:43.009Z,7.10
2018-01-27T20:54:09.877Z,7.10
2018-01-27T20:56:36.801Z,7.10
2018-01-27T20:59:03.681Z,7.00
2018-01-27T21:01:30.528Z,7.00
2018-01-27T21:03:57.437Z,7.10
2018-01-27T21:06:24.304Z,7.20
2018-01-27T21:08:51.218Z,7.10
2018-01-27T21:11:18.169Z,7.20
2018-01-27T21:13:45.122Z,7.30
2018-01-27T21:16:12.069Z,7.30
2018-01-27T21:18:38.920Z,7.30
2018-01-27T21:21:05.853Z,7.30
2018-01-27T21:23:32.799Z,7.30
2018-01-27T21:25:59.740Z,7.40
2018-01-27T21:28:26.683Z,7.40
2018-01-27T21:30:53.532Z,7.30
2018-01-27T21:33:20.514Z,7.40
2018-01-27T21:35:47.432Z,7.40
2018-01-27T21:38:14.572Z,7.50
2018-01-27T21:40:41.455Z,7.50
2018-01-27T21:43:08.364Z,7.60
2018-01-27T21:45:35.212Z,7.60
2018-01-27T21:48:02.161Z,7.60
2018-01-27T21:50:28.999Z,7.70
2018-01-27T21:52:55.902Z,7.70
2018-01-27T21:55:22.741Z,7.80
2018-01-27T21:57:50.000Z,7.80
2018-01-27T22:00:17.304Z,7.80
2018-01-27T22:02:44.248Z,7.80
2018-01-27T22:05:11.196Z,7.80
2018-01-27T22:07:38.084Z,7.80
2018-01-27T22:10:05.326Z,7.70
2018-01-27T22:12:32.240Z,7.80
2018-01-27T22:14:59.188Z,7.70
2018-01-27T22:17:26.044Z,7.70
2018-01-27T22:19:52.981Z,7.70
2018-01-27T22:22:19.920Z,7.70
2018-01-27T22:24:46.780Z,7.70
2018-01-27T22:27:13.714Z,7.70
2018-01-27T22:29:40.548Z,7.70
2018-01-27T22:32:07.513Z,7.70
2018-01-27T22:34:34.447Z,7.70
2018-01-27T22:37:01.393Z,7.70
2018-01-27T22:39:28.340Z,7.80
2018-01-27T22:41:55.392Z,7.70
2018-01-27T22:44:22.330Z,7.50
2018-01-27T22:46:49.228Z,7.40
2018-01-27T22:49:16.495Z,7.30
2018-01-27T22:51:43.796Z,7.20
2018-01-27T22:54:10.737Z,7.30
2018-01-27T22:56:37.607Z,7.30
2018-01-27T22:59:04.537Z,7.30
2018-01-27T23:01:31.376Z,7.20
2018-01-27T23:03:58.367Z,7.20
2018-01-27T23:06:25.169Z,7.10
2018-01-27T23:08:52.120Z,7.20
2018-01-27T23:11:18.967Z,7.20
2018-01-27T23:13:45.825Z,7.30
2018-01-27T23:16:12.693Z,7.30
2018-01-27T23:18:39.538Z,7.30
2018-01-27T23:21:06.849Z,7.30
2018-01-27T23:23:33.789Z,7.30
2018-01-27T23:26:00.641Z,7.30
2018-01-27T23:28:27.499Z,7.10
2018-01-27T23:30:54.432Z,7.10
2018-01-27T23:33:21.268Z,7.10
2018-01-27T23:35:48.217Z,7.10
2018-01-27T23:38:15.060Z,7.20
2018-01-27T23:40:41.925Z,7.20
2018-01-27T23:43:08.779Z,7.10
2018-01-27T23:45:35.699Z,7.10
2018-01-27T23:48:02.557Z,7.00
2018-01-27T23:50:29.484Z,7.00
2018-01-27T23:52:56.352Z,7.00
2018-01-27T23:55:23.280Z,7.20
2018-01-27T23:57:50.115Z,7.10
